Time;durP1;ratioP1;P1;durP2;ratioP2;P2;SDS_P1;SDS_P2;PMS_P1;PMS_P2;Temp;Humidity;BMP_temperature;BMP_pressure;BME280_temperature;BME280_humidity;BME280_pressure;Samples;Min_cycle;Max_cycle;Signal;HPM_P1;HPM_P2
2022/01/08 00:00:26;;;;;;;50.40;45.38;;;15.60;59.50;;;;;;4983726;27;90564;-69
2022/01/08 00:02:52;;;;;;;50.50;45.33;;;15.50;60.00;;;;;;4996241;27;91180;-70
2022/01/08 00:05:18;;;;;;;50.67;45.65;;;15.40;59.50;;;;;;4996245;27;90059;-70
2022/01/08 00:07:45;;;;;;;50.67;45.60;;;15.40;59.70;;;;;;4980784;27;93810;-70
2022/01/08 00:10:10;;;;;;;50.60;45.53;;;15.40;59.70;;;;;;4996779;27;88999;-70
2022/01/08 00:12:36;;;;;;;50.42;45.40;;;15.40;59.80;;;;;;4992512;27;89293;-70
2022/01/08 00:15:04;;;;;;;50.55;45.45;;;15.40;59.60;;;;;;4980633;27;88470;-70
2022/01/08 00:17:30;;;;;;;50.70;45.58;;;15.30;59.80;;;;;;4998116;27;89436;-70
2022/01/08 00:19:56;;;;;;;50.55;45.45;;;15.30;59.70;;;;;;4993059;27;90038;-69
2022/01/08 00:22:21;;;;;;;50.28;45.30;;;15.30;60.00;;;;;;4986027;27;91941;-69
2022/01/08 00:24:47;;;;;;;50.17;45.17;;;15.30;60.00;;;;;;4994633;27;92805;-70
2022/01/08 00:27:13;;;;;;;50.88;45.60;;;15.40;60.50;;;;;;4994015;27;89320;-70
2022/01/08 00:29:40;;;;;;;50.55;45.35;;;15.50;59.70;;;;;;4993098;27;95978;-69
2022/01/08 00:32:06;;;;;;;50.83;45.65;;;15.60;59.60;;;;;;4997894;27;89917;-70
2022/01/08 00:34:31;;;;;;;50.70;45.60;;;15.70;59.80;;;;;;4991188;27;96691;-69
2022/01/08 00:36:57;;;;;;;50.45;45.35;;;15.80;59.10;;;;;;4988350;27;97674;-70
2022/01/08 00:39:22;;;;;;;50.65;45.45;;;15.80;59.30;;;;;;4985206;27;95149;-70
2022/01/08 00:41:48;;;;;;;50.50;45.40;;;15.90;59.20;;;;;;4992713;27;89539;-70
2022/01/08 00:44:16;;;;;;;50.40;45.33;;;16.00;58.60;;;;;;4980943;27;89454;-70
2022/01/08 00:46:42;;;;;;;50.58;45.47;;;16.00;58.70;;;;;;4985319;27;90841;-70
2022/01/08 00:49:08;;;;;;;50.17;45.17;;;16.10;58.60;;;;;;4975440;27;90650;-70
2022/01/08 00:51:34;;;;;;;50.15;45.08;;;16.20;58.20;;;;;;4985133;27;95856;-70
2022/01/08 00:53:59;;;;;;;50.55;45.45;;;16.30;58.10;;;;;;4985830;27;90584;-70
2022/01/08 00:56:25;;;;;;;50.17;45.15;;;16.30;58.10;;;;;;4991942;27;89716;-70
2022/01/08 00:58:50;;;;;;;50.13;45.13;;;16.30;58.00;;;;;;4980107;27;91172;-69
2022/01/08 01:01:16;;;;;;;50.33;45.33;;;16.30;58.20;;;;;;4984536;27;89685;-70
2022/01/08 01:03:56;;;;;;;50.10;45.10;;;16.30;57.70;;;;;;708259;27;10091837;-69
2022/01/08 01:06:22;;;;;;;50.25;45.15;;;16.40;57.90;;;;;;4991127;27;90699;-70
2022/01/08 01:08:49;;;;;;;50.35;45.25;;;16.40;57.60;;;;;;4999769;27;90646;-70
2022/01/08 01:11:14;;;;;;;50.33;45.20;;;16.30;57.50;;;;;;4982771;27;95216;-70
2022/01/08 01:13:40;;;;;;;50.53;45.50;;;16.40;57.70;;;;;;4980148;27;90348;-70
2022/01/08 01:16:05;;;;;;;49.92;44.92;;;16.50;57.50;;;;;;4988265;27;89394;-70
2022/01/08 01:18:31;;;;;;;50.42;45.40;;;16.60;57.60;;;;;;5000839;27;88791;-70
2022/01/08 01:20:57;;;;;;;50.20;45.20;;;16.60;57.20;;;;;;4992427;27;89739;-70
2022/01/08 01:23:34;;;;;;;50.05;45.05;;;16.70;56.80;;;;;;4995329;27;95605;-70
2022/01/08 01:26:04;;;;;;;50.10;45.17;;;16.80;56.80;;;;;;4982608;27;91315;-70
2022/01/08 01:47:11;;;;;;;50.60;45.40;;;16.60;56.90;;;;;;4979653;27;89865;-69
2022/01/08 01:49:46;;;;;;;49.92;44.97;;;16.50;56.60;;;;;;4999130;27;89953;-70
2022/01/08 01:52:14;;;;;;;50.22;45.15;;;16.40;57.20;;;;;;5001462;27;93786;-67
2022/01/08 01:54:41;;;;;;;50.30;45.20;;;16.40;57.10;;;;;;4991584;27;90033;-70
2022/01/08 01:57:09;;;;;;;50.45;45.35;;;16.30;57.40;;;;;;4985045;27;90252;-70
2022/01/08 01:59:35;;;;;;;50.40;45.30;;;16.30;57.30;;;;;;4991106;27;90476;-70
2022/01/08 02:02:02;;;;;;;50.70;45.63;;;16.20;57.40;;;;;;4965803;27;90254;-70
2022/01/08 02:04:27;;;;;;;50.28;45.28;;;16.10;57.70;;;;;;4986214;27;89665;-70
2022/01/08 02:06:53;;;;;;;50.65;45.55;;;16.10;57.30;;;;;;4987980;27;88916;-70
2022/01/08 02:09:19;;;;;;;50.35;45.25;;;16.10;57.20;;;;;;4981577;27;94324;-69
2022/01/08 02:12:03;;;;;;;50.13;45.13;;;16.00;57.30;;;;;;4987710;27;89871;-69
2022/01/08 02:14:31;;;;;;;50.13;45.13;;;15.80;57.80;;;;;;4985098;27;104574;-70
2022/01/08 02:16:57;;;;;;;49.88;44.92;;;15.70;58.00;;;;;;4988072;27;89930;-70
2022/01/08 02:19:23;;;;;;;50.40;45.35;;;15.70;58.50;;;;;;4990690;27;90242;-70
2022/01/08 02:21:55;;;;;;;50.35;45.25;;;15.60;58.20;;;;;;4977201;27;89929;-69
2022/01/08 02:24:21;;;;;;;;;;;15.50;58.60;;;;;;4986845;27;97520;-70
2022/01/08 02:26:47;;;;;;;50.33;45.28;;;15.60;58.60;;;;;;5005610;27;95907;-70
2022/01/08 02:29:14;;;;;;;51.50;45.22;;;15.50;58.60;;;;;;4958474;27;1198529;-70
2022/01/08 02:31:40;;;;;;;50.00;45.03;;;15.40;58.70;;;;;;5000738;27;94028;-70
2022/01/08 02:34:06;;;;;;;50.25;45.15;;;15.40;58.60;;;;;;5000282;27;90064;-70
2022/01/08 02:36:33;;;;;;;49.67;44.58;;;15.40;58.90;;;;;;5002533;27;89928;-69
2022/01/08 02:38:59;;;;;;;50.35;45.25;;;15.40;59.10;;;;;;4983829;27;89236;-70
2022/01/08 02:41:26;;;;;;;50.22;45.15;;;15.30;59.00;;;;;;4991705;27;89209;-70
2022/01/08 02:43:53;;;;;;;50.05;45.10;;;15.30;59.20;;;;;;4982764;27;93594;-70
2022/01/08 02:46:20;;;;;;;50.45;45.35;;;15.30;59.20;;;;;;4972037;27;90883;-70
2022/01/08 02:48:46;;;;;;;50.30;45.28;;;15.20;59.00;;;;;;5002697;27;91229;-70
2022/01/08 02:51:12;;;;;;;50.03;45.03;;;15.20;59.30;;;;;;4994744;27;89989;-70
2022/01/08 02:53:38;;;;;;;49.83;44.88;;;15.20;59.20;;;;;;4989301;27;95464;-70
2022/01/08 02:56:04;;;;;;;49.63;44.72;;;15.20;59.40;;;;;;4989540;27;89973;-70
2022/01/08 02:58:30;;;;;;;50.08;45.03;;;15.20;59.30;;;;;;4978526;27;89638;-70
2022/01/08 03:00:57;;;;;;;50.38;45.25;;;15.20;59.90;;;;;;4995275;27;90510;-71
2022/01/08 03:03:23;;;;;;;50.63;45.42;;;15.30;59.20;;;;;;4985027;27;91288;-69
2022/01/08 03:05:49;;;;;;;50.10;45.05;;;15.40;59.50;;;;;;4994421;27;89780;-70
2022/01/08 03:08:15;;;;;;;50.30;45.30;;;15.60;58.90;;;;;;4986147;27;96874;-70
2022/01/08 03:10:41;;;;;;;50.08;45.10;;;15.70;58.70;;;;;;4988161;27;89689;-70
2022/01/08 03:13:07;;;;;;;50.30;45.33;;;15.80;58.90;;;;;;4981739;27;97542;-70
2022/01/08 03:15:35;;;;;;;51.00;45.80;;;15.90;58.70;;;;;;4993454;27;90827;-70
2022/01/08 03:18:02;;;;;;;50.20;45.15;;;16.00;58.50;;;;;;5007935;27;91203;-70
2022/01/08 03:20:28;;;;;;;50.03;45.10;;;16.20;58.00;;;;;;4997863;27;89147;-70
2022/01/08 03:23:00;;;;;;;50.00;44.95;;;16.20;57.80;;;;;;4979897;27;90514;-70
2022/01/08 03:25:26;;;;;;;49.90;44.95;;;16.30;57.90;;;;;;5001295;27;89882;-70
2022/01/08 03:27:53;;;;;;;50.05;45.05;;;16.30;57.50;;;;;;4998612;27;91068;-70
2022/01/08 03:30:19;;;;;;;50.42;45.33;;;16.30;57.40;;;;;;5004193;27;89399;-70
2022/01/08 03:32:45;;;;;;;50.33;45.22;;;16.30;57.50;;;;;;5000023;27;92816;-69
2022/01/08 03:35:11;;;;;;;50.22;45.22;;;16.30;57.30;;;;;;4988666;27;89328;-70
2022/01/08 03:37:37;;;;;;;50.35;45.33;;;16.30;57.50;;;;;;4993859;27;93409;-70
2022/01/08 03:40:04;;;;;;;50.35;45.28;;;16.40;57.40;;;;;;4999629;27;93573;-70
2022/01/08 03:42:30;;;;;;;49.95;45.00;;;16.50;57.40;;;;;;4990047;27;88961;-70
2022/01/08 03:44:56;;;;;;;50.33;45.35;;;16.50;57.20;;;;;;4982548;27;90091;-70
2022/01/08 03:49:53;;;;;;;50.28;45.28;;;16.60;56.90;;;;;;4994947;27;88915;-70
2022/01/08 03:52:19;;;;;;;50.38;45.28;;;16.60;56.70;;;;;;4998869;27;93097;-69
2022/01/08 03:54:45;;;;;;;50.67;45.53;;;16.60;56.70;;;;;;4975443;27;91955;-70
2022/01/08 03:57:11;;;;;;;49.47;44.58;;;16.50;57.00;;;;;;4992452;27;89380;-70
2022/01/08 03:59:36;;;;;;;50.05;45.05;;;16.50;56.80;;;;;;4990294;27;89132;-70
2022/01/08 04:02:02;;;;;;;49.85;44.90;;;16.50;56.40;;;;;;4998160;27;89026;-70
2022/01/08 04:04:28;;;;;;;50.13;45.13;;;16.40;57.00;;;;;;4990815;27;91604;-70
2022/01/08 04:06:54;;;;;;;50.40;45.28;;;16.40;57.10;;;;;;4998396;27;90849;-70
2022/01/08 04:09:19;;;;;;;50.45;45.35;;;16.40;57.10;;;;;;4994170;27;89281;-70
2022/01/08 04:11:45;;;;;;;49.83;44.88;;;16.50;56.40;;;;;;4998176;27;89458;-70
2022/01/08 04:14:12;;;;;;;50.33;45.33;;;16.50;56.80;;;;;;4987795;27;89465;-70
2022/01/08 04:16:42;;;;;;;50.50;45.42;;;16.60;56.50;;;;;;4993510;27;90610;-70
2022/01/08 04:19:08;;;;;;;50.55;45.45;;;16.60;56.40;;;;;;4997251;27;97071;-70
2022/01/08 04:24:09;;;;;;;49.90;44.97;;;16.60;56.30;;;;;;5014989;27;89888;-70
2022/01/08 04:26:35;;;;;;;50.55;45.35;;;16.60;56.20;;;;;;5004407;27;89170;-70
2022/01/08 04:29:01;;;;;;;50.47;45.38;;;16.50;56.10;;;;;;4996995;27;90586;-69
2022/01/08 04:31:27;;;;;;;50.42;45.35;;;16.50;56.20;;;;;;4993880;27;90242;-70
2022/01/08 04:33:53;;;;;;;51.03;45.83;;;16.50;56.10;;;;;;4997180;27;96309;-70
2022/01/08 04:36:20;;;;;;;50.40;45.35;;;16.40;56.40;;;;;;4991057;27;98718;-70
2022/01/08 04:38:45;;;;;;;50.55;45.45;;;16.40;56.60;;;;;;4997372;27;90919;-70
2022/01/08 04:41:11;;;;;;;50.00;45.00;;;16.40;56.60;;;;;;4989971;27;89150;-70
2022/01/08 04:43:42;;;;;;;49.75;44.85;;;16.30;56.60;;;;;;4996012;27;90928;-70
2022/01/08 04:46:08;;;;;;;49.70;44.70;;;16.30;57.30;;;;;;4967858;27;88262;-70
2022/01/08 04:48:33;;;;;;;50.13;45.13;;;16.20;56.80;;;;;;4990687;27;90866;-70
2022/01/08 04:50:59;;;;;;;50.00;45.00;;;16.00;57.10;;;;;;4987159;27;89900;-70
2022/01/08 04:53:24;;;;;;;50.38;45.33;;;16.00;57.50;;;;;;4987741;27;92685;-70
2022/01/08 04:55:50;;;;;;;49.75;44.75;;;15.90;57.40;;;;;;4996503;27;90386;-70
2022/01/08 04:58:15;;;;;;;50.08;45.05;;;16.00;57.40;;;;;;4992649;27;89657;-70
2022/01/08 05:00:41;;;;;;;51.03;45.72;;;16.00;57.20;;;;;;4992236;27;89223;-70
2022/01/08 05:03:07;;;;;;;50.38;45.15;;;15.90;57.50;;;;;;4989760;27;90114;-70
2022/01/08 05:05:32;;;;;;;50.88;45.53;;;15.80;57.60;;;;;;4995401;27;89382;-70
2022/01/08 05:07:58;;;;;;;50.50;45.30;;;15.90;57.90;;;;;;4987990;27;89386;-70
2022/01/08 05:10:24;;;;;;;50.25;45.15;;;15.90;57.70;;;;;;4990527;27;89363;-70
2022/01/08 05:12:50;;;;;;;49.58;44.72;;;16.00;57.70;;;;;;4992260;27;90084;-69
2022/01/08 05:15:16;;;;;;;50.50;45.30;;;16.10;57.70;;;;;;4984748;27;90239;-70
2022/01/08 05:17:43;;;;;;;50.67;45.63;;;16.10;57.50;;;;;;5005398;27;93580;-70
2022/01/08 05:20:12;;;;;;;50.15;45.15;;;16.20;57.40;;;;;;5003849;27;89634;-70
2022/01/08 05:25:08;;;;;;;50.47;45.38;;;16.50;56.90;;;;;;5000118;27;89795;-70
2022/01/08 05:27:34;;;;;;;50.28;45.20;;;16.60;56.70;;;;;;5001461;27;90769;-70
2022/01/08 05:30:00;;;;;;;50.40;45.40;;;16.80;56.70;;;;;;4999316;27;98027;-70
2022/01/08 05:32:26;;;;;;;50.35;45.25;;;16.90;56.40;;;;;;4977926;27;93300;-70
2022/01/08 05:34:51;;;;;;;50.65;45.55;;;17.00;56.20;;;;;;4987409;27;97808;-70
2022/01/08 05:37:19;;;;;;;50.50;45.38;;;17.10;56.10;;;;;;5008524;27;89251;-70
2022/01/08 05:39:45;;;;;;;50.47;45.38;;;17.20;55.90;;;;;;5000394;27;89599;-70
2022/01/08 05:42:12;;;;;;;50.33;45.28;;;17.30;55.70;;;;;;4988223;27;91033;-70
2022/01/08 05:44:37;;;;;;;50.58;45.47;;;17.50;55.50;;;;;;4988941;27;97638;-70
2022/01/08 05:47:04;;;;;;;50.30;45.20;;;17.60;55.70;;;;;;4991674;27;89933;-70
2022/01/08 05:49:30;;;;;;;50.63;45.42;;;17.70;54.90;;;;;;4965331;27;98950;-70
2022/01/08 05:51:55;;;;;;;50.85;45.63;;;17.80;55.90;;;;;;4991337;27;90211;-70
2022/01/08 05:54:21;;;;;;;50.97;45.78;;;17.90;55.00;;;;;;4993252;27;91944;-70
2022/01/08 05:56:49;;;;;;;50.53;45.42;;;18.00;54.80;;;;;;4992998;27;93232;-70
2022/01/08 05:59:14;;;;;;;50.60;45.40;;;18.10;54.80;;;;;;4996307;27;89041;-70
2022/01/08 06:01:40;;;;;;;51.05;45.85;;;18.20;54.50;;;;;;4988761;27;89230;-70
2022/01/08 06:04:06;;;;;;;50.92;45.72;;;18.20;54.50;;;;;;4987567;27;89932;-70
2022/01/08 06:06:31;;;;;;;50.60;45.53;;;18.20;54.50;;;;;;4998349;27;97822;-70
2022/01/08 06:08:57;;;;;;;50.60;45.42;;;18.20;54.40;;;;;;4997143;27;90911;-69
2022/01/08 06:11:23;;;;;;;50.95;45.75;;;18.30;54.30;;;;;;4996432;27;89846;-70
2022/01/08 06:13:48;;;;;;;50.80;45.60;;;18.30;54.20;;;;;;5004798;27;94191;-70
2022/01/08 06:16:14;;;;;;;50.70;45.50;;;18.30;54.10;;;;;;4999263;27;91144;-70
2022/01/08 06:18:41;;;;;;;50.60;45.50;;;18.30;54.20;;;;;;4992442;27;94241;-70
2022/01/08 06:21:06;;;;;;;50.90;45.70;;;18.30;54.20;;;;;;4990854;27;90466;-70
2022/01/08 06:23:33;;;;;;;50.97;45.78;;;18.30;54.10;;;;;;5002523;27;88971;-70
2022/01/08 06:25:59;;;;;;;50.72;45.60;;;18.20;54.20;;;;;;4992423;27;96233;-69
2022/01/08 06:28:25;;;;;;;50.83;45.67;;;18.20;54.20;;;;;;4995519;27;89671;-70
2022/01/08 06:30:52;;;;;;;50.50;45.35;;;18.20;54.10;;;;;;4991903;27;92255;-70
2022/01/08 06:33:18;;;;;;;50.75;45.65;;;18.20;54.10;;;;;;4989600;27;92537;-70
2022/01/08 06:35:45;;;;;;;50.47;45.45;;;18.20;54.10;;;;;;4990976;27;98583;-70
2022/01/08 06:38:11;;;;;;;50.88;45.65;;;18.20;54.10;;;;;;5001981;27;89435;-70
2022/01/08 06:40:37;;;;;;;50.65;45.45;;;18.20;54.10;;;;;;4977868;27;93275;-69
2022/01/08 06:43:03;;;;;;;50.55;45.45;;;18.10;54.20;;;;;;4997048;27;91211;-70
2022/01/08 06:45:29;;;;;;;50.58;45.42;;;18.10;54.40;;;;;;4991620;27;90038;-70
2022/01/08 06:47:55;;;;;;;50.80;45.70;;;18.00;54.60;;;;;;4993620;27;89815;-69
2022/01/08 06:50:20;;;;;;;50.42;45.38;;;18.00;54.40;;;;;;4996874;27;90135;-70
2022/01/08 06:52:46;;;;;;;50.42;45.35;;;18.00;54.50;;;;;;4991418;27;90303;-70
2022/01/08 06:55:12;;;;;;;50.72;45.53;;;18.00;54.40;;;;;;4988925;27;91524;-70
2022/01/08 06:57:38;;;;;;;50.35;45.33;;;17.90;54.50;;;;;;4989942;27;90111;-70
2022/01/08 07:00:04;;;;;;;50.53;45.40;;;17.80;54.50;;;;;;4993846;27;89574;-70
2022/01/08 07:02:30;;;;;;;50.30;45.15;;;17.80;54.50;;;;;;4992326;27;90338;-70
2022/01/08 07:04:56;;;;;;;50.83;45.60;;;17.70;54.50;;;;;;5000193;27;89673;-70
2022/01/08 07:07:22;;;;;;;50.60;45.45;;;17.70;55.10;;;;;;5005165;27;89597;-70
2022/01/08 07:09:47;;;;;;;50.25;45.25;;;17.70;54.80;;;;;;5011497;27;90112;-70
2022/01/08 07:12:13;;;;;;;50.40;45.30;;;17.60;54.90;;;;;;5005201;27;89753;-70
2022/01/08 07:14:39;;;;;;;50.17;45.17;;;17.60;55.20;;;;;;4987860;27;89637;-70
2022/01/08 07:17:04;;;;;;;50.55;45.45;;;17.50;55.20;;;;;;5000959;27;90549;-70
2022/01/08 07:19:30;;;;;;;50.38;45.30;;;17.50;55.50;;;;;;5000471;27;90588;-70
2022/01/08 07:21:56;;;;;;;50.53;45.42;;;17.50;55.10;;;;;;5001546;27;91078;-70
2022/01/08 07:24:21;;;;;;;50.35;45.25;;;17.50;55.00;;;;;;5008788;27;89719;-70
2022/01/08 07:26:47;;;;;;;50.20;45.15;;;17.40;55.10;;;;;;5000829;27;91537;-70
2022/01/08 07:29:12;;;;;;;50.50;45.42;;;17.40;55.10;;;;;;5000419;27;91392;-69
2022/01/08 07:31:38;;;;;;;50.58;45.38;;;17.30;55.20;;;;;;5006258;27;89816;-70
2022/01/08 07:34:04;;;;;;;50.03;45.03;;;17.30;55.70;;;;;;5009145;27;89866;-70
2022/01/08 07:36:29;;;;;;;50.00;45.00;;;17.20;55.50;;;;;;5001898;27;89712;-70
2022/01/08 07:38:55;;;;;;;50.38;45.25;;;17.30;55.70;;;;;;4995214;27;90426;-70
2022/01/08 07:41:21;;;;;;;50.53;45.42;;;17.20;55.60;;;;;;4999021;27;94069;-70
2022/01/08 07:43:47;;;;;;;50.72;45.53;;;17.20;55.90;;;;;;4994362;27;90863;-69
2022/01/08 07:46:12;;;;;;;50.03;45.05;;;17.30;55.50;;;;;;4991567;27;91184;-70
2022/01/08 07:48:40;;;;;;;50.28;45.17;;;17.30;56.40;;;;;;4997003;27;89947;-70
2022/01/08 07:51:06;;;;;;;50.55;45.45;;;17.40;56.40;;;;;;4979053;27;94096;-69
2022/01/08 07:53:31;;;;;;;50.22;45.20;;;17.40;55.50;;;;;;4993061;27;92085;-69
2022/01/08 07:55:57;;;;;;;50.50;45.33;;;17.50;55.60;;;;;;5000214;27;89566;-69
2022/01/08 07:58:22;;;;;;;50.55;45.40;;;17.50;55.50;;;;;;5002143;27;89591;-70
2022/01/08 08:00:49;;;;;;;50.35;45.25;;;17.40;55.50;;;;;;4998084;27;92120;-70
2022/01/08 08:03:16;;;;;;;50.15;45.15;;;17.50;55.60;;;;;;5000568;27;89265;-70
2022/01/08 08:05:41;;;;;;;50.05;45.05;;;17.50;55.40;;;;;;4996449;27;90554;-68
2022/01/08 08:08:07;;;;;;;50.00;45.05;;;17.50;55.20;;;;;;5004800;27;90225;-68
2022/01/08 08:10:32;;;;;;;50.22;45.20;;;17.50;55.00;;;;;;5003604;27;91518;-68
2022/01/08 08:12:58;;;;;;;50.40;45.30;;;17.40;55.30;;;;;;4994822;27;90623;-68
2022/01/08 08:15:24;;;;;;;50.25;45.25;;;17.40;55.20;;;;;;4996731;27;91097;-68
2022/01/08 08:17:50;;;;;;;50.95;45.75;;;17.50;55.30;;;;;;4981812;27;92049;-68
2022/01/08 08:20:16;;;;;;;50.53;45.42;;;17.50;55.10;;;;;;5004798;27;89684;-68
2022/01/08 08:22:42;;;;;;;50.22;45.22;;;17.50;54.90;;;;;;5003701;27;90072;-68
2022/01/08 08:25:12;;;;;;;50.83;45.70;;;17.60;54.70;;;;;;5008978;27;88895;-69
2022/01/08 08:27:39;;;;;;;50.97;45.70;;;17.60;54.80;;;;;;5008145;27;91768;-68
2022/01/08 08:30:06;;;;;;;50.25;45.25;;;17.50;54.70;;;;;;5004709;27;89050;-69
2022/01/08 08:32:31;;;;;;;50.88;45.70;;;17.50;54.40;;;;;;5005675;27;92605;-70
2022/01/08 08:34:57;;;;;;;50.50;45.45;;;17.50;54.70;;;;;;4995906;27;89475;-68
2022/01/08 08:37:23;;;;;;;49.90;44.90;;;17.40;55.00;;;;;;4994924;27;90088;-73
2022/01/08 08:39:49;;;;;;;50.65;45.33;;;17.40;54.70;;;;;;4999763;27;93659;-70
2022/01/08 08:42:14;;;;;;;50.55;45.45;;;17.30;55.00;;;;;;4986773;27;91290;-71
2022/01/08 08:44:40;;;;;;;50.47;45.38;;;17.40;55.10;;;;;;4987669;27;95632;-71
2022/01/08 08:47:06;;;;;;;50.92;45.53;;;17.40;54.90;;;;;;4999575;27;95375;-70
2022/01/08 08:49:32;;;;;;;50.78;45.53;;;17.40;55.10;;;;;;4985661;27;89406;-71
2022/01/08 08:51:58;;;;;;;50.28;45.22;;;17.50;54.90;;;;;;4982142;27;91209;-70
2022/01/08 08:54:23;;;;;;;50.85;45.55;;;17.60;55.10;;;;;;4980733;27;90641;-70
2022/01/08 08:56:49;;;;;;;50.35;45.28;;;17.60;54.80;;;;;;5000267;27;96902;-72
2022/01/08 08:59:14;;;;;;;50.83;45.55;;;17.60;54.80;;;;;;4985539;27;95264;-69
2022/01/08 09:01:40;;;;;;;50.50;45.40;;;17.60;54.80;;;;;;4993525;27;89679;-70
2022/01/08 09:04:06;;;;;;;50.80;45.53;;;17.60;55.00;;;;;;4992026;27;90813;-70
2022/01/08 09:06:32;;;;;;;50.30;45.22;;;17.70;54.80;;;;;;4986483;27;90837;-70
2022/01/08 09:08:58;;;;;;;50.83;45.47;;;17.70;54.80;;;;;;4970466;27;90328;-70
2022/01/08 09:11:23;;;;;;;50.60;45.45;;;17.80;54.60;;;;;;4996670;27;89924;-70
2022/01/08 09:13:49;;;;;;;51.33;45.92;;;18.00;54.10;;;;;;4989303;27;89997;-70
2022/01/08 09:16:16;;;;;;;50.85;45.55;;;18.20;53.50;;;;;;4982770;27;90263;-70
2022/01/08 09:18:42;;;;;;;51.17;45.88;;;18.40;52.90;;;;;;4989693;27;90905;-70
2022/01/08 09:21:08;;;;;;;51.15;45.75;;;18.50;52.40;;;;;;4981710;27;90243;-70
2022/01/08 09:23:35;;;;;;;52.90;45.67;;;18.50;52.10;;;;;;4999208;27;89775;-70
2022/01/08 09:26:01;;;;;;;51.03;45.78;;;18.50;52.20;;;;;;4992794;27;89252;-70
2022/01/08 09:28:28;;;;;;;51.03;45.78;;;18.60;52.10;;;;;;5011902;27;89263;-70
2022/01/08 09:30:55;;;;;;;51.35;45.85;;;18.60;51.80;;;;;;4966385;27;94778;-70
2022/01/08 09:33:21;;;;;;;53.17;47.25;;;18.60;51.50;;;;;;4993997;27;89639;-70
2022/01/08 09:35:47;;;;;;;67.82;49.88;;;18.50;51.50;;;;;;4955563;27;93071;-70
2022/01/08 09:38:13;;;;;;;68.97;49.92;;;18.50;52.50;;;;;;4992832;27;89413;-69
2022/01/08 09:40:39;;;;;;;70.53;50.28;;;18.50;52.40;;;;;;4999100;27;90809;-70
2022/01/08 09:43:04;;;;;;;69.20;49.90;;;18.50;52.70;;;;;;4988751;27;90796;-69
2022/01/08 09:45:30;;;;;;;62.17;49.58;;;18.50;52.20;;;;;;4980564;27;90294;-70
2022/01/08 09:47:56;;;;;;;63.50;49.47;;;18.40;52.20;;;;;;5009623;27;89088;-69
2022/01/08 09:50:22;;;;;;;65.95;48.88;;;18.30;52.10;;;;;;5007335;27;89133;-70
2022/01/08 09:52:48;;;;;;;68.07;49.15;;;18.30;52.30;;;;;;4985298;27;91238;-70
2022/01/08 09:55:14;;;;;;;62.25;48.83;;;18.30;52.10;;;;;;5004939;27;89846;-70
2022/01/08 09:57:39;;;;;;;60.38;48.17;;;18.20;52.40;;;;;;5001657;27;89454;-70
2022/01/08 10:00:14;;;;;;;57.58;48.35;;;18.20;52.40;;;;;;5007652;27;90517;-70
2022/01/08 10:02:40;;;;;;;62.13;48.55;;;18.20;52.30;;;;;;5003440;27;89096;-70
2022/01/08 10:05:12;;;;;;;72.65;48.63;;;18.20;52.40;;;;;;5009017;27;89004;-70
2022/01/08 10:07:37;;;;;;;59.90;47.97;;;18.20;52.20;;;;;;5003929;27;91230;-70
2022/01/08 10:10:03;;;;;;;61.35;48.25;;;18.10;52.30;;;;;;4998171;27;92270;-70
2022/01/08 10:13:04;;;;;;;57.45;48.33;;;18.10;52.40;;;;;;5006960;27;90122;-70
2022/01/08 10:18:33;;;;;;;61.60;48.45;;;18.20;52.90;;;;;;5018806;27;89746;-70
2022/01/08 10:21:02;;;;;;;59.78;48.65;;;18.30;52.80;;;;;;5010629;27;89220;-69
2022/01/08 10:23:30;;;;;;;59.17;48.58;;;18.30;52.70;;;;;;5003021;27;93349;-69
2022/01/08 10:26:03;;;;;;;56.65;48.33;;;18.40;52.80;;;;;;5018514;27;89120;-70
2022/01/08 10:28:58;;;;;;;57.40;48.20;;;18.40;52.60;;;;;;4988842;27;90298;-69
2022/01/08 10:31:27;;;;;;;55.00;47.83;;;18.50;52.30;;;;;;4998632;27;90228;-69
2022/01/08 10:34:02;;;;;;;57.63;48.53;;;18.50;52.50;;;;;;4999669;27;89597;-70
2022/01/08 10:36:32;;;;;;;55.97;48.05;;;18.50;52.40;;;;;;5006367;27;91107;-70
2022/01/08 10:39:00;;;;;;;59.42;48.88;;;18.60;52.50;;;;;;4997432;27;89061;-70
2022/01/08 10:41:27;;;;;;;59.40;48.40;;;18.60;52.50;;;;;;4991641;27;89982;-70
2022/01/08 10:44:10;;;;;;;58.70;48.10;;;18.60;52.50;;;;;;4988930;27;90987;-70
2022/01/08 10:46:37;;;;;;;55.15;48.10;;;18.60;52.50;;;;;;4990412;27;89735;-70
2022/01/08 10:49:03;;;;;;;57.10;48.47;;;18.60;52.60;;;;;;4992417;27;89656;-70
2022/01/08 10:51:35;;;;;;;59.05;48.25;;;18.60;52.70;;;;;;4997848;27;96326;-70
2022/01/08 10:54:10;;;;;;;58.22;48.33;;;18.60;52.70;;;;;;5005155;27;94444;-70
2022/01/08 10:56:41;;;;;;;60.33;48.17;;;18.60;52.80;;;;;;5000961;27;89341;-69
2022/01/08 10:59:14;;;;;;;56.33;48.13;;;18.60;52.90;;;;;;4996940;27;89067;-70
2022/01/08 11:02:03;;;;;;;57.42;47.95;;;18.60;53.00;;;;;;4990063;27;91974;-71
2022/01/08 11:04:46;;;;;;;56.88;47.88;;;18.50;53.10;;;;;;5006845;27;90657;-70
2022/01/08 11:07:16;;;;;;;60.78;48.38;;;18.50;53.20;;;;;;5005542;27;90815;-70
2022/01/08 11:09:43;;;;;;;58.55;48.13;;;18.40;53.60;;;;;;4977050;27;91578;-70
2022/01/08 11:12:17;;;;;;;56.47;47.92;;;18.40;54.10;;;;;;5000927;27;89846;-66
2022/01/08 11:17:23;;;;;;;57.50;47.95;;;18.30;54.60;;;;;;5000032;27;94573;-68
2022/01/08 11:19:55;;;;;;;57.42;47.92;;;18.30;54.50;;;;;;4999161;27;89797;-68
2022/01/08 11:22:23;;;;;;;53.88;47.55;;;18.30;54.40;;;;;;4986077;28;89933;-69
2022/01/08 11:25:00;;;;;;;54.97;47.38;;;18.30;54.60;;;;;;4980779;27;90749;-71
2022/01/08 11:27:54;;;;;;;57.42;47.53;;;18.40;54.40;;;;;;5003983;27;90676;-70
2022/01/08 11:30:23;;;;;;;57.33;47.85;;;18.40;54.40;;;;;;4991703;27;90051;-68
2022/01/08 11:32:51;;;;;;;54.33;47.88;;;18.50;55.00;;;;;;4995711;27;91282;-68
2022/01/08 11:35:18;;;;;;;56.70;48.05;;;18.50;54.00;;;;;;4999427;27;90211;-68
2022/01/08 11:37:49;;;;;;;58.75;48.08;;;18.60;54.10;;;;;;4999861;27;92052;-70
2022/01/08 11:40:18;;;;;;;53.63;47.53;;;18.60;54.10;;;;;;4992031;27;96025;-71
2022/01/08 11:42:44;;;;;;;58.55;47.88;;;18.60;54.30;;;;;;4994632;27;91022;-71
2022/01/08 11:45:14;;;;;;;53.75;47.33;;;18.70;54.20;;;;;;5005960;27;89350;-72
2022/01/08 11:47:44;;;;;;;57.72;47.80;;;18.80;53.80;;;;;;4996914;27;90440;-71
2022/01/08 11:50:12;;;;;;;55.25;47.53;;;18.80;53.80;;;;;;4996474;27;90887;-71
2022/01/08 11:52:38;;;;;;;55.63;47.88;;;18.80;53.30;;;;;;4988312;27;91723;-71
2022/01/08 11:55:04;;;;;;;56.03;47.45;;;18.80;53.50;;;;;;4994344;27;89676;-72
2022/01/08 11:57:31;;;;;;;57.00;47.58;;;18.90;53.90;;;;;;4993646;27;91503;-70
2022/01/08 11:59:58;;;;;;;54.53;47.78;;;18.80;53.20;;;;;;4995278;27;90023;-71
2022/01/08 12:02:39;;;;;;;53.53;47.35;;;18.90;53.00;;;;;;4996683;27;90350;-71
2022/01/08 12:05:07;;;;;;;57.53;47.75;;;18.90;52.80;;;;;;5007087;27;92324;-71
2022/01/08 12:07:44;;;;;;;59.58;47.75;;;18.90;52.70;;;;;;4976917;27;91802;-71
2022/01/08 12:10:20;;;;;;;52.92;47.13;;;18.80;52.80;;;;;;4997983;27;89816;-71
2022/01/08 12:12:59;;;;;;;53.08;47.15;;;18.80;52.80;;;;;;4994199;27;92013;-69
2022/01/08 12:15:40;;;;;;;55.10;47.33;;;18.80;52.90;;;;;;5000300;27;91468;-71
2022/01/08 12:18:11;;;;;;;53.30;47.15;;;18.70;53.20;;;;;;4994478;27;91568;-71
2022/01/08 12:20:46;;;;;;;55.58;47.63;;;18.70;53.10;;;;;;5002815;27;96827;-71
2022/01/08 12:23:24;;;;;;;54.30;47.42;;;18.70;53.20;;;;;;5007683;27;89533;-72
2022/01/08 12:25:50;;;;;;;52.58;46.85;;;18.60;53.00;;;;;;5008245;27;89968;-72
2022/01/08 12:28:41;;;;;;;52.92;47.10;;;18.60;53.40;;;;;;5002595;27;90638;-71
2022/01/08 12:31:48;;;;;;;53.25;47.55;;;18.60;53.10;;;;;;4988468;27;91161;-72
2022/01/08 12:34:38;;;;;;;52.85;47.05;;;18.50;53.80;;;;;;4997481;27;91691;-72
2022/01/08 12:37:12;;;;;;;54.40;47.28;;;18.40;53.60;;;;;;5000693;27;88782;-71
2022/01/08 12:39:48;;;;;;;52.63;47.03;;;18.40;53.60;;;;;;4980538;27;89846;-72
2022/01/08 12:42:20;;;;;;;52.42;46.90;;;18.50;53.60;;;;;;4994564;27;90850;-73
2022/01/08 12:45:07;;;;;;;52.67;46.97;;;18.50;53.70;;;;;;4992644;27;95852;-72
2022/01/08 12:47:45;;;;;;;52.60;47.00;;;18.50;53.60;;;;;;4994726;27;94676;-72
2022/01/08 12:50:17;;;;;;;56.10;47.15;;;18.60;53.50;;;;;;4996156;27;90726;-72
2022/01/08 12:53:05;;;;;;;53.25;47.45;;;18.60;53.70;;;;;;5007699;27;90888;-73
2022/01/08 12:56:02;;;;;;;57.13;48.60;;;18.50;53.90;;;;;;4998020;27;89839;-73
2022/01/08 12:58:33;;;;;;;56.95;49.15;;;18.50;54.10;;;;;;4974077;27;92269;-71
2022/01/08 13:01:07;;;;;;;;;;;18.60;54.40;;;;;;4995868;27;90846;-71
2022/01/08 13:03:35;;;;;;;66.57;49.88;;;18.70;54.30;;;;;;5005204;27;89525;-72